sensor_id;sensor_type;location;lat;lon;timestamp;pressure;altitude;pressure_sealevel;temperature;humidity
71239;BME280;61342;51.442;7.370;2023-02-20T00:00:18;101072.84;;;7.85;96.47
71239;BME280;61342;51.442;7.370;2023-02-20T00:01:20;101076.81;;;7.88;96.45
71239;BME280;61342;51.442;7.370;2023-02-20T00:02:21;101077.41;;;7.92;96.57
71239;BME280;61342;51.442;7.370;2023-02-20T00:03:21;101077.41;;;7.92;96.66
71239;BME280;61342;51.442;7.370;2023-02-20T00:04:22;101075.53;;;7.89;96.54
71239;BME280;61342;51.442;7.370;2023-02-20T00:05:22;101075.03;;;7.90;96.54
71239;BME280;61342;51.442;7.370;2023-02-20T00:06:22;101079.16;;;7.89;96.59
71239;BME280;61342;51.442;7.370;2023-02-20T00:07:23;101072.66;;;7.89;96.79
71239;BME280;61342;51.442;7.370;2023-02-20T00:08:23;101073.66;;;7.86;96.86
71239;BME280;61342;51.442;7.370;2023-02-20T00:09:24;101075.22;;;7.87;96.82
71239;BME280;61342;51.442;7.370;2023-02-20T00:10:24;101062.22;;;7.86;96.96
71239;BME280;61342;51.442;7.370;2023-02-20T00:11:25;101065.06;;;7.86;96.74
71239;BME280;61342;51.442;7.370;2023-02-20T00:12:25;101063.50;;;7.85;96.82
71239;BME280;61342;51.442;7.370;2023-02-20T00:13:25;101054.09;;;7.84;97.01
71239;BME280;61342;51.442;7.370;2023-02-20T00:14:26;101058.25;;;7.83;96.78
71239;BME280;61342;51.442;7.370;2023-02-20T00:15:26;101052.53;;;7.83;96.96
71239;BME280;61342;51.442;7.370;2023-02-20T00:16:27;101053.81;;;7.82;96.88
71239;BME280;61342;51.442;7.370;2023-02-20T00:17:27;101043.22;;;7.74;96.89
71239;BME280;61342;51.442;7.370;2023-02-20T00:18:27;101049.53;;;7.78;97.07
71239;BME280;61342;51.442;7.370;2023-02-20T00:19:28;101048.25;;;7.79;97.02
71239;BME280;61342;51.442;7.370;2023-02-20T00:20:28;101048.75;;;7.77;97.24
71239;BME280;61342;51.442;7.370;2023-02-20T00:21:29;101042.53;;;7.79;97.13
71239;BME280;61342;51.442;7.370;2023-02-20T00:22:29;101043.81;;;7.78;97.37
71239;BME280;61342;51.442;7.370;2023-02-20T00:23:31;101038.59;;;7.76;97.39
71239;BME280;61342;51.442;7.370;2023-02-20T00:24:32;101043.03;;;7.77;97.70
71239;BME280;61342;51.442;7.370;2023-02-20T00:25:32;101036.53;;;7.77;97.37
71239;BME280;61342;51.442;7.370;2023-02-20T00:26:32;101033.69;;;7.77;97.43
71239;BME280;61342;51.442;7.370;2023-02-20T00:27:33;101024.50;;;7.73;97.43
71239;BME280;61342;51.442;7.370;2023-02-20T00:28:33;101032.09;;;7.76;97.40
71239;BME280;61342;51.442;7.370;2023-02-20T00:29:33;101030.50;;;7.75;97.41
71239;BME280;61342;51.442;7.370;2023-02-20T00:30:34;101028.91;;;7.74;97.66
71239;BME280;61342;51.442;7.370;2023-02-20T00:31:34;101028.63;;;7.72;97.61
71239;BME280;61342;51.442;7.370;2023-02-20T00:32:34;101027.03;;;7.71;97.78
71239;BME280;61342;51.442;7.370;2023-02-20T00:33:35;101035.94;;;7.73;97.66
71239;BME280;61342;51.442;7.370;2023-02-20T00:34:35;101026.56;;;7.72;97.89
71239;BME280;61342;51.442;7.370;2023-02-20T00:35:36;101026.56;;;7.72;97.87
71239;BME280;61342;51.442;7.370;2023-02-20T00:36:38;101026.56;;;7.72;98.18
71239;BME280;61342;51.442;7.370;2023-02-20T00:37:38;101022.59;;;7.70;98.00
71239;BME280;61342;51.442;7.370;2023-02-20T00:38:41;101018.97;;;7.69;98.29
71239;BME280;61342;51.442;7.370;2023-02-20T00:39:41;101013.63;;;7.62;98.05
71239;BME280;61342;51.442;7.370;2023-02-20T00:40:42;101026.44;;;7.67;98.38
71239;BME280;61342;51.442;7.370;2023-02-20T00:41:42;101020.72;;;7.67;98.35
71239;BME280;61342;51.442;7.370;2023-02-20T00:42:43;101023.91;;;7.69;98.59
71239;BME280;61342;51.442;7.370;2023-02-20T00:43:43;101017.88;;;7.67;98.45
71239;BME280;61342;51.442;7.370;2023-02-20T00:44:44;101021.22;;;7.65;98.69
71239;BME280;61342;51.442;7.370;2023-02-20T00:45:44;101025.66;;;7.66;98.99
71239;BME280;61342;51.442;7.370;2023-02-20T00:46:44;101015.81;;;7.67;98.35
71239;BME280;61342;51.442;7.370;2023-02-20T00:47:45;101012.63;;;7.65;98.68
71239;BME280;61342;51.442;7.370;2023-02-20T00:48:45;101019.13;;;7.66;98.76
71239;BME280;61342;51.442;7.370;2023-02-20T00:49:45;101017.09;;;7.66;99.14
71239;BME280;61342;51.442;7.370;2023-02-20T00:50:46;101013.72;;;7.68;98.95
71239;BME280;61342;51.442;7.370;2023-02-20T00:51:46;101011.06;;;7.64;99.00
71239;BME280;61342;51.442;7.370;2023-02-20T00:52:47;101010.88;;;7.68;99.19
71239;BME280;61342;51.442;7.370;2023-02-20T00:53:47;101007.22;;;7.67;99.25
71239;BME280;61342;51.442;7.370;2023-02-20T00:54:47;101014.00;;;7.70;99.26
71239;BME280;61342;51.442;7.370;2023-02-20T00:55:48;101006.72;;;7.69;99.23
71239;BME280;61342;51.442;7.370;2023-02-20T00:56:48;101009.59;;;7.69;99.46
71239;BME280;61342;51.442;7.370;2023-02-20T00:57:48;101009.88;;;7.71;99.64
71239;BME280;61342;51.442;7.370;2023-02-20T00:58:49;101002.28;;;7.68;99.72
71239;BME280;61342;51.442;7.370;2023-02-20T00:59:49;101000.19;;;7.68;99.75
71239;BME280;61342;51.442;7.370;2023-02-20T01:00:50;101004.16;;;7.71;99.94
71239;BME280;61342;51.442;7.370;2023-02-20T01:01:51;101001.50;;;7.67;99.88
71239;BME280;61342;51.442;7.370;2023-02-20T01:02:51;101002.09;;;7.71;100.00
71239;BME280;61342;51.442;7.370;2023-02-20T01:03:52;101002.88;;;7.72;100.00
71239;BME280;61342;51.442;7.370;2023-02-20T01:04:52;101010.69;;;7.71;100.00
71239;BME280;61342;51.442;7.370;2023-02-20T01:05:53;100998.75;;;7.73;100.00
71239;BME280;61342;51.442;7.370;2023-02-20T01:06:53;100998.75;;;7.73;100.00
71239;BME280;61342;51.442;7.370;2023-02-20T01:07:53;100992.72;;;7.71;100.00
71239;BME280;61342;51.442;7.370;2023-02-20T01:08:53;101001.09;;;7.74;100.00
71239;BME280;61342;51.442;7.370;2023-02-20T01:09:54;100999.03;;;7.75;100.00
71239;BME280;61342;51.442;7.370;2023-02-20T01:10:54;100997.75;;;7.76;100.00
71239;BME280;61342;51.442;7.370;2023-02-20T01:11:54;100993.63;;;7.77;100.00
71239;BME280;61342;51.442;7.370;2023-02-20T01:12:55;100990.75;;;7.77;100.00
71239;BME280;61342;51.442;7.370;2023-02-20T01:13:55;100989.44;;;7.78;100.00
71239;BME280;61342;51.442;7.370;2023-02-20T01:14:56;100986.59;;;7.78;100.00
71239;BME280;61342;51.442;7.370;2023-02-20T01:15:56;100972.78;;;7.76;100.00
71239;BME280;61342;51.442;7.370;2023-02-20T01:16:56;100974.38;;;7.77;100.00
71239;BME280;61342;51.442;7.370;2023-02-20T01:17:57;100972.78;;;7.76;100.00
71239;BME280;61342;51.442;7.370;2023-02-20T01:18:57;100963.69;;;7.78;100.00
71239;BME280;61342;51.442;7.370;2023-02-20T01:19:58;100969.22;;;7.81;100.00
71239;BME280;61342;51.442;7.370;2023-02-20T01:20:58;100964.28;;;7.82;100.00
71239;BME280;61342;51.442;7.370;2023-02-20T01:21:59;100963.00;;;7.83;100.00
71239;BME280;61342;51.442;7.370;2023-02-20T01:23:00;100968.72;;;7.83;100.00
71239;BME280;61342;51.442;7.370;2023-02-20T01:24:00;100968.72;;;7.83;100.00
71239;BME280;61342;51.442;7.370;2023-02-20T01:25:00;100972.41;;;7.83;100.00
71239;BME280;61342;51.442;7.370;2023-02-20T01:26:01;100965.59;;;7.81;100.00
71239;BME280;61342;51.442;7.370;2023-02-20T01:27:01;100967.16;;;7.82;100.00
71239;BME280;61342;51.442;7.370;2023-02-20T01:28:02;100974.78;;;7.85;100.00
71239;BME280;61342;51.442;7.370;2023-02-20T01:29:03;100976.34;;;7.86;100.00
71239;BME280;61342;51.442;7.370;2023-02-20T01:30:04;100961.22;;;7.85;100.00
71239;BME280;61342;51.442;7.370;2023-02-20T01:31:06;100966.47;;;7.87;100.00
71239;BME280;61342;51.442;7.370;2023-02-20T01:32:06;100972.19;;;7.87;100.00
71239;BME280;61342;51.442;7.370;2023-02-20T01:33:09;100958.78;;;7.78;100.00
71239;BME280;61342;51.442;7.370;2023-02-20T01:34:09;100958.19;;;7.89;100.00
71239;BME280;61342;51.442;7.370;2023-02-20T01:35:10;100963.09;;;7.88;100.00
71239;BME280;61342;51.442;7.370;2023-02-20T01:36:10;100950.59;;;7.86;100.00
71239;BME280;61342;51.442;7.370;2023-02-20T01:37:14;100963.59;;;7.87;100.00
71239;BME280;61342;51.442;7.370;2023-02-20T01:38:14;100956.59;;;7.88;100.00
71239;BME280;61342;51.442;7.370;2023-02-20T01:39:19;100966.28;;;7.90;100.00
71239;BME280;61342;51.442;7.370;2023-02-20T01:40:22;100961.31;;;7.91;100.00
71239;BME280;61342;51.442;7.370;2023-02-20T01:41:23;100958.47;;;7.91;100.00
71239;BME280;61342;51.442;7.370;2023-02-20T01:42:28;100956.91;;;7.90;100.00
71239;BME280;61342;51.442;7.370;2023-02-20T01:43:29;100953.06;;;7.93;100.00
71239;BME280;61342;51.442;7.370;2023-02-20T01:44:34;100947.00;;;7.91;100.00
71239;BME280;61342;51.442;7.370;2023-02-20T01:45:37;100948.59;;;7.92;100.00
71239;BME280;61342;51.442;7.370;2023-02-20T01:47:39;100945.47;;;7.90;100.00
71239;BME280;61342;51.442;7.370;2023-02-20T01:48:39;100957.50;;;7.94;100.00
71239;BME280;61342;51.442;7.370;2023-02-20T01:49:46;100948.09;;;7.93;100.00
71239;BME280;61342;51.442;7.370;2023-02-20T01:50:49;100956.19;;;7.95;100.00
71239;BME280;61342;51.442;7.370;2023-02-20T01:51:57;100950.97;;;7.93;100.00
71239;BME280;61342;51.442;7.370;2023-02-20T01:53:02;100950.19;;;7.93;100.00
71239;BME280;61342;51.442;7.370;2023-02-20T01:54:06;100950.47;;;7.95;100.00
71239;BME280;61342;51.442;7.370;2023-02-20T01:55:11;100951.47;;;7.92;100.00
71239;BME280;61342;51.442;7.370;2023-02-20T01:56:12;100947.59;;;7.95;100.00
71239;BME280;61342;51.442;7.370;2023-02-20T01:57:16;100940.59;;;7.96;100.00
71239;BME280;61342;51.442;7.370;2023-02-20T01:58:24;100940.59;;;7.96;100.00
71239;BME280;61342;51.442;7.370;2023-02-20T01:59:29;100947.91;;;7.97;100.00
71239;BME280;61342;51.442;7.370;2023-02-20T02:00:31;100947.41;;;7.98;100.00
71239;BME280;61342;51.442;7.370;2023-02-20T02:01:32;100943.47;;;7.96;100.00
71239;BME280;61342;51.442;7.370;2023-02-20T02:02:34;100943.78;;;7.98;100.00
71239;BME280;61342;51.442;7.370;2023-02-20T02:03:41;100937.75;;;7.96;100.00
71239;BME280;61342;51.442;7.370;2023-02-20T02:04:43;100947.41;;;7.98;100.00
71239;BME280;61342;51.442;7.370;2023-02-20T02:05:48;100944.53;;;7.98;100.00
71239;BME280;61342;51.442;7.370;2023-02-20T02:06:51;100945.63;;;8.01;100.00
71239;BME280;61342;51.442;7.370;2023-02-20T02:07:54;100948.19;;;7.99;100.00
71239;BME280;61342;51.442;7.370;2023-02-20T02:08:58;100948.50;;;8.01;100.00
71239;BME280;61342;51.442;7.370;2023-02-20T02:10:06;100938.31;;;8.00;100.00
71239;BME280;61342;51.442;7.370;2023-02-20T02:11:13;100926.59;;;7.98;100.00
71239;BME280;61342;51.442;7.370;2023-02-20T02:12:14;100925.59;;;8.01;100.00
71239;BME280;61342;51.442;7.370;2023-02-20T02:13:15;100923.94;;;7.94;100.00
71239;BME280;61342;51.442;7.370;2023-02-20T02:14:15;100929.25;;;8.01;100.00
71239;BME280;61342;51.442;7.370;2023-02-20T02:15:17;100927.97;;;8.02;100.00
71239;BME280;61342;51.442;7.370;2023-02-20T02:16:39;100924.59;;;8.03;100.00
71239;BME280;61342;51.442;7.370;2023-02-20T02:31:19;100890.66;;;7.97;100.00
71239;BME280;61342;51.442;7.370;2023-02-20T02:32:46;100874.25;;;7.97;100.00
71239;BME280;61342;51.442;7.370;2023-02-20T02:38:13;100863.63;;;7.98;100.00
71239;BME280;61342;51.442;7.370;2023-02-20T02:40:46;100871.72;;;7.99;100.00
71239;BME280;61342;51.442;7.370;2023-02-20T02:42:00;100870.13;;;7.98;100.00
71239;BME280;61342;51.442;7.370;2023-02-20T02:43:20;100865.47;;;8.01;100.00
71239;BME280;61342;51.442;7.370;2023-02-20T02:44:29;100856.91;;;8.01;100.00
71239;BME280;61342;51.442;7.370;2023-02-20T02:48:58;100852.75;;;8.02;99.74
71239;BME280;61342;51.442;7.370;2023-02-20T02:50:22;100849.59;;;8.00;99.50
71239;BME280;61342;51.442;7.370;2023-02-20T02:51:27;100858.75;;;8.03;99.87
71239;BME280;61342;51.442;7.370;2023-02-20T02:52:29;100859.56;;;8.04;99.57
71239;BME280;61342;51.442;7.370;2023-02-20T02:54:11;100864.97;;;8.02;99.54
71239;BME280;61342;51.442;7.370;2023-02-20T02:55:21;100855.13;;;8.03;99.67
71239;BME280;61342;51.442;7.370;2023-02-20T02:56:32;100853.53;;;8.02;99.46
71239;BME280;61342;51.442;7.370;2023-02-20T02:57:33;100861.91;;;8.05;99.64
71239;BME280;61342;51.442;7.370;2023-02-20T02:58:34;100860.03;;;8.02;99.51
71239;BME280;61342;51.442;7.370;2023-02-20T02:59:34;100865.06;;;8.07;99.33
71239;BME280;61342;51.442;7.370;2023-02-20T03:00:52;100861.63;;;8.03;99.10
71239;BME280;61342;51.442;7.370;2023-02-20T03:01:59;100858.25;;;8.05;99.14
71239;BME280;61342;51.442;7.370;2023-02-20T03:03:11;100856.47;;;8.07;99.08
71239;BME280;61342;51.442;7.370;2023-02-20T03:04:12;100860.63;;;8.06;99.10
71239;BME280;61342;51.442;7.370;2023-02-20T03:05:18;100850.75;;;8.07;99.11
71239;BME280;61342;51.442;7.370;2023-02-20T03:06:24;100850.75;;;8.07;99.04
71239;BME280;61342;51.442;7.370;2023-02-20T03:07:29;100840.88;;;8.08;99.08
71239;BME280;61342;51.442;7.370;2023-02-20T03:08:58;100841.88;;;8.05;98.82
71239;BME280;61342;51.442;7.370;2023-02-20T03:10:04;100839.28;;;8.07;99.27
71239;BME280;61342;51.442;7.370;2023-02-20T03:11:10;100843.75;;;8.08;98.86
71239;BME280;61342;51.442;7.370;2023-02-20T03:12:12;100840.88;;;8.08;98.77
71239;BME280;61342;51.442;7.370;2023-02-20T03:13:14;100843.75;;;8.08;98.79
71239;BME280;61342;51.442;7.370;2023-02-20T03:14:20;100837.50;;;8.10;98.88
71239;BME280;61342;51.442;7.370;2023-02-20T03:15:42;100834.16;;;8.11;98.93
71239;BME280;61342;51.442;7.370;2023-02-20T03:19:32;100836.44;;;8.07;98.26
71239;BME280;61342;51.442;7.370;2023-02-20T03:20:37;100827.56;;;8.05;98.43
71239;BME280;61342;51.442;7.370;2023-02-20T03:21:43;100831.97;;;8.06;98.17
71239;BME280;61342;51.442;7.370;2023-02-20T03:22:58;100836.44;;;8.07;98.30
71239;BME280;61342;51.442;7.370;2023-02-20T03:24:01;100840.88;;;8.08;98.39
71239;BME280;61342;51.442;7.370;2023-02-20T03:25:12;100823.41;;;8.06;98.33
71239;BME280;61342;51.442;7.370;2023-02-20T03:26:17;100828.16;;;8.09;98.37
71239;BME280;61342;51.442;7.370;2023-02-20T03:28:35;100830.19;;;8.09;98.16
71239;BME280;61342;51.442;7.370;2023-02-20T03:29:38;100835.94;;;8.09;98.31
71239;BME280;61342;51.442;7.370;2023-02-20T03:30:50;100832.28;;;8.08;97.98
71239;BME280;61342;51.442;7.370;2023-02-20T03:31:57;100835.16;;;8.08;98.07
71239;BME280;61342;51.442;7.370;2023-02-20T03:33:22;100829.44;;;8.08;98.18
71239;BME280;61342;51.442;7.370;2023-02-20T03:34:43;100839.28;;;8.07;98.13
71239;BME280;61342;51.442;7.370;2023-02-20T03:36:06;100824.97;;;8.07;98.20
71239;BME280;61342;51.442;7.370;2023-02-20T03:37:29;100830.72;;;8.07;98.01
71239;BME280;61342;51.442;7.370;2023-02-20T03:39:13;100831.97;;;8.06;97.97
71239;BME280;61342;51.442;7.370;2023-02-20T03:40:35;100837.44;;;8.04;97.97
71239;BME280;61342;51.442;7.370;2023-02-20T03:41:55;100828.06;;;8.04;98.11
71239;BME280;61342;51.442;7.370;2023-02-20T03:43:19;100823.31;;;8.01;98.36
71239;BME280;61342;51.442;7.370;2023-02-20T03:44:28;100819.97;;;8.02;98.11
71239;BME280;61342;51.442;7.370;2023-02-20T03:45:30;100827.25;;;8.03;98.24
71239;BME280;61342;51.442;7.370;2023-02-20T03:46:34;100820.97;;;8.00;98.06
71239;BME280;61342;51.442;7.370;2023-02-20T03:47:42;100827.00;;;8.02;98.27
71239;BME280;61342;51.442;7.370;2023-02-20T03:48:52;100824.13;;;8.02;98.21
71239;BME280;61342;51.442;7.370;2023-02-20T03:49:55;100817.59;;;8.01;98.28
71239;BME280;61342;51.442;7.370;2023-02-20T03:50:56;100827.25;;;8.03;98.35
71239;BME280;61342;51.442;7.370;2023-02-20T03:52:16;100818.41;;;8.02;98.19
71239;BME280;61342;51.442;7.370;2023-02-20T03:53:17;100819.19;;;8.02;98.20
71239;BME280;61342;51.442;7.370;2023-02-20T03:54:18;100823.13;;;8.04;98.20
71239;BME280;61342;51.442;7.370;2023-02-20T03:55:19;100817.41;;;8.04;98.27
71239;BME280;61342;51.442;7.370;2023-02-20T03:56:23;100816.63;;;8.04;98.36
71239;BME280;61342;51.442;7.370;2023-02-20T03:57:32;100821.53;;;8.03;98.38
71239;BME280;61342;51.442;7.370;2023-02-20T03:58:36;100815.81;;;8.03;98.16
71239;BME280;61342;51.442;7.370;2023-02-20T03:59:56;100809.81;;;8.02;98.09
71239;BME280;61342;51.442;7.370;2023-02-20T04:01:00;100821.53;;;8.03;98.07
71239;BME280;61342;51.442;7.370;2023-02-20T04:02:08;100807.72;;;8.02;98.21
71239;BME280;61342;51.442;7.370;2023-02-20T04:03:24;100809.81;;;8.02;98.17
71239;BME280;61342;51.442;7.370;2023-02-20T04:04:33;100806.16;;;8.01;98.25
71239;BME280;61342;51.442;7.370;2023-02-20T04:05:38;100808.50;;;8.02;98.24
71239;BME280;61342;51.442;7.370;2023-02-20T04:06:42;100798.38;;;8.02;98.24
71239;BME280;61342;51.442;7.370;2023-02-20T04:07:49;100806.97;;;8.02;98.32
71239;BME280;61342;51.442;7.370;2023-02-20T04:08:56;100824.13;;;8.02;98.21
71239;BME280;61342;51.442;7.370;2023-02-20T04:10:01;100810.28;;;8.00;98.09
71239;BME280;61342;51.442;7.370;2023-02-20T04:11:14;100823.56;;;7.98;98.26
71239;BME280;61342;51.442;7.370;2023-02-20T04:12:26;100819.88;;;7.97;98.10
71239;BME280;61342;51.442;7.370;2023-02-20T04:13:29;100820.19;;;7.99;98.21
71239;BME280;61342;51.442;7.370;2023-02-20T04:14:31;100818.59;;;7.98;98.25
71239;BME280;61342;51.442;7.370;2023-02-20T04:15:32;100819.38;;;7.99;98.46
71239;BME280;61342;51.442;7.370;2023-02-20T04:16:36;100818.59;;;7.98;97.99
71239;BME280;61342;51.442;7.370;2023-02-20T04:18:10;100813.00;;;7.89;98.11
71239;BME280;61342;51.442;7.370;2023-02-20T04:19:12;100810.22;;;7.95;98.27
71239;BME280;61342;51.442;7.370;2023-02-20T04:20:13;100807.34;;;7.95;98.26
71239;BME280;61342;51.442;7.370;2023-02-20T04:22:27;100816.75;;;7.95;98.16
71239;BME280;61342;51.442;7.370;2023-02-20T04:23:31;100817.53;;;7.96;98.20
71239;BME280;61342;51.442;7.370;2023-02-20T04:24:47;100821.38;;;7.93;98.09
71239;BME280;61342;51.442;7.370;2023-02-20T04:26:34;100822.97;;;7.94;98.08
71239;BME280;61342;51.442;7.370;2023-02-20T04:27:16;100808.34;;;7.92;98.36
71239;BME280;61342;51.442;7.370;2023-02-20T04:28:17;100809.63;;;7.91;98.24
71239;BME280;61342;51.442;7.370;2023-02-20T04:29:18;100801.84;;;7.91;98.27
71239;BME280;61342;51.442;7.370;2023-02-20T04:30:19;100811.22;;;7.92;98.33
71239;BME280;61342;51.442;7.370;2023-02-20T04:31:20;100800.28;;;7.90;98.21
71239;BME280;61342;51.442;7.370;2023-02-20T04:32:20;100807.59;;;7.91;98.23
71239;BME280;61342;51.442;7.370;2023-02-20T04:33:21;100802.63;;;7.92;98.24
71239;BME280;61342;51.442;7.370;2023-02-20T04:34:22;100805.50;;;7.92;98.07
71239;BME280;61342;51.442;7.370;2023-02-20T04:35:23;100816.16;;;7.91;98.04
71239;BME280;61342;51.442;7.370;2023-02-20T04:36:24;100808.34;;;7.92;98.14
71239;BME280;61342;51.442;7.370;2023-02-20T04:37:25;100801.06;;;7.91;98.26
71239;BME280;61342;51.442;7.370;2023-02-20T04:38:25;100796.13;;;7.91;98.13
71239;BME280;61342;51.442;7.370;2023-02-20T04:39:25;100793.28;;;7.91;98.24
71239;BME280;61342;51.442;7.370;2023-02-20T04:40:26;100797.69;;;7.92;98.05
71239;BME280;61342;51.442;7.370;2023-02-20T04:41:26;100794.81;;;7.92;97.98
71239;BME280;61342;51.442;7.370;2023-02-20T04:42:26;100791.19;;;7.92;98.00
71239;BME280;61342;51.442;7.370;2023-02-20T04:43:27;100796.91;;;7.92;98.02
71239;BME280;61342;51.442;7.370;2023-02-20T04:44:27;100795.63;;;7.93;98.08
71239;BME280;61342;51.442;7.370;2023-02-20T04:45:30;100794.03;;;7.92;98.06
71239;BME280;61342;51.442;7.370;2023-02-20T04:46:30;100785.75;;;7.94;98.25
71239;BME280;61342;51.442;7.370;2023-02-20T04:47:31;100786.75;;;7.91;97.89
71239;BME280;61342;51.442;7.370;2023-02-20T04:48:31;100785.47;;;7.92;97.74
71239;BME280;61342;51.442;7.370;2023-02-20T04:49:31;100783.09;;;7.90;98.04
71239;BME280;61342;51.442;7.370;2023-02-20T04:50:33;100784.19;;;7.93;97.93
71239;BME280;61342;51.442;7.370;2023-02-20T04:51:33;100787.53;;;7.91;98.12
71239;BME280;61342;51.442;7.370;2023-02-20T04:52:34;100780.25;;;7.90;97.85
71239;BME280;61342;51.442;7.370;2023-02-20T04:53:34;100785.97;;;7.90;97.95
71239;BME280;61342;51.442;7.370;2023-02-20T04:54:34;100778.16;;;7.91;97.81
71239;BME280;61342;51.442;7.370;2023-02-20T04:55:35;100777.38;;;7.90;97.77
71239;BME280;61342;51.442;7.370;2023-02-20T04:56:35;100773.25;;;7.91;97.86
71239;BME280;61342;51.442;7.370;2023-02-20T04:57:35;100780.50;;;7.92;97.81
71239;BME280;61342;51.442;7.370;2023-02-20T04:58:36;100781.31;;;7.93;97.75
71239;BME280;61342;51.442;7.370;2023-02-20T04:59:36;100778.97;;;7.91;97.91
71239;BME280;61342;51.442;7.370;2023-02-20T05:00:36;100782.91;;;7.94;97.75
71239;BME280;61342;51.442;7.370;2023-02-20T05:01:37;100780.50;;;7.92;97.93
71239;BME280;61342;51.442;7.370;2023-02-20T05:02:38;100775.59;;;7.93;97.97
71239;BME280;61342;51.442;7.370;2023-02-20T05:03:39;100774.00;;;7.92;97.66
71239;BME280;61342;51.442;7.370;2023-02-20T06:56:37;100769.53;;;5.89;100.00
71239;BME280;61342;51.442;7.370;2023-02-20T06:57:38;100778.78;;;6.08;100.00
71239;BME280;61342;51.442;7.370;2023-02-20T07:00:39;100812.41;;;6.27;100.00
71239;BME280;61342;51.442;7.370;2023-02-20T07:01:41;100804.56;;;6.36;100.00
71239;BME280;61342;51.442;7.370;2023-02-20T07:02:42;100815.59;;;6.43;100.00
71239;BME280;61342;51.442;7.370;2023-02-20T07:03:44;100802.03;;;6.53;100.00
71239;BME280;61342;51.442;7.370;2023-02-20T07:04:48;100804.53;;;6.60;100.00
71239;BME280;61342;51.442;7.370;2023-02-20T07:05:49;100817.13;;;6.68;100.00
71239;BME280;61342;51.442;7.370;2023-02-20T07:06:52;100815.16;;;6.74;100.00
71239;BME280;61342;51.442;7.370;2023-02-20T07:07:54;100813.22;;;6.80;100.00
71239;BME280;61342;51.442;7.370;2023-02-20T07:08:57;100822.66;;;6.86;100.00
71239;BME280;61342;51.442;7.370;2023-02-20T07:09:57;100814.19;;;6.91;100.00
71239;BME280;61342;51.442;7.370;2023-02-20T07:11:00;100808.56;;;6.96;100.00
71239;BME280;61342;51.442;7.370;2023-02-20T07:12:06;100811.25;;;7.00;100.00
71239;BME280;61342;51.442;7.370;2023-02-20T07:13:09;100802.19;;;7.01;100.00
71239;BME280;61342;51.442;7.370;2023-02-20T07:14:29;100808.78;;;7.07;100.00
71239;BME280;61342;51.442;7.370;2023-02-20T07:15:49;100795.50;;;7.04;100.00
71239;BME280;61342;51.442;7.370;2023-02-20T07:16:50;100805.53;;;7.14;100.00
71239;BME280;61342;51.442;7.370;2023-02-20T07:17:50;100808.22;;;7.18;100.00
71239;BME280;61342;51.442;7.370;2023-02-20T07:18:53;100801.41;;;7.15;100.00
71239;BME280;61342;51.442;7.370;2023-02-20T07:19:53;100799.91;;;7.20;100.00
71239;BME280;61342;51.442;7.370;2023-02-20T07:20:54;100787.78;;;7.25;100.00
71239;BME280;61342;51.442;7.370;2023-02-20T07:21:54;100796.16;;;7.28;100.00
71239;BME280;61342;51.442;7.370;2023-02-20T07:22:55;100795.19;;;7.31;100.00
71239;BME280;61342;51.442;7.370;2023-02-20T07:23:56;100802.75;;;7.34;100.00
71239;BME280;61342;51.442;7.370;2023-02-20T07:24:56;100792.91;;;7.35;100.00
71239;BME280;61342;51.442;7.370;2023-02-20T07:25:56;100799.41;;;7.36;100.00
71239;BME280;61342;51.442;7.370;2023-02-20T07:26:57;100783.16;;;7.27;100.00
71239;BME280;61342;51.442;7.370;2023-02-20T07:27:57;100808.09;;;7.41;100.00
71239;BME280;61342;51.442;7.370;2023-02-20T07:28:58;100799.97;;;7.40;100.00
71239;BME280;61342;51.442;7.370;2023-02-20T07:30:07;100803.34;;;7.38;100.00
71239;BME280;61342;51.442;7.370;2023-02-20T07:31:31;100780.56;;;7.29;100.00
71239;BME280;61342;51.442;7.370;2023-02-20T07:33:15;100808.09;;;7.41;100.00
71239;BME280;61342;51.442;7.370;2023-02-20T07:36:05;100794.00;;;7.38;100.00
71239;BME280;61342;51.442;7.370;2023-02-20T07:37:06;100798.22;;;7.42;100.00
71239;BME280;61342;51.442;7.370;2023-02-20T07:38:06;100804.81;;;7.48;100.00
71239;BME280;61342;51.442;7.370;2023-02-20T07:39:07;100778.69;;;7.41;100.00
71239;BME280;61342;51.442;7.370;2023-02-20T07:40:08;100794.16;;;7.48;100.00
71239;BME280;61342;51.442;7.370;2023-02-20T07:41:09;100799.38;;;7.50;100.00
71239;BME280;61342;51.442;7.370;2023-02-20T07:42:09;100802.25;;;7.50;100.00
71239;BME280;61342;51.442;7.370;2023-02-20T07:43:10;100796.03;;;7.51;100.00
71239;BME280;61342;51.442;7.370;2023-02-20T07:44:11;100802.53;;;7.52;100.00
71239;BME280;61342;51.442;7.370;2023-02-20T07:45:23;100791.09;;;7.52;100.00
71239;BME280;61342;51.442;7.370;2023-02-20T07:46:25;100800.97;;;7.51;100.00
71239;BME280;61342;51.442;7.370;2023-02-20T07:47:25;100808.53;;;7.54;100.00
71239;BME280;61342;51.442;7.370;2023-02-20T07:48:26;100802.81;;;7.54;100.00
71239;BME280;61342;51.442;7.370;2023-02-20T07:49:28;100803.13;;;7.56;100.00
71239;BME280;61342;51.442;7.370;2023-02-20T07:50:28;100800.78;;;7.54;100.00
71239;BME280;61342;51.442;7.370;2023-02-20T07:51:30;100809.94;;;7.58;100.00
71239;BME280;61342;51.442;7.370;2023-02-20T07:52:32;100794.81;;;7.58;100.00
71239;BME280;61342;51.442;7.370;2023-02-20T07:53:35;100799.78;;;7.57;100.00
71239;BME280;61342;51.442;7.370;2023-02-20T07:54:35;100795.81;;;7.55;100.00
71239;BME280;61342;51.442;7.370;2023-02-20T07:55:36;100800.34;;;7.61;100.00
71239;BME280;61342;51.442;7.370;2023-02-20T07:56:36;100805.00;;;7.59;100.00
71239;BME280;61342;51.442;7.370;2023-02-20T07:57:39;100802.72;;;7.63;100.00
71239;BME280;61342;51.442;7.370;2023-02-20T07:58:39;100807.94;;;7.64;100.00
71239;BME280;61342;51.442;7.370;2023-02-20T07:59:40;100791.28;;;7.63;100.00
71239;BME280;61342;51.442;7.370;2023-02-20T08:00:40;100812.38;;;7.65;100.00
71239;BME280;61342;51.442;7.370;2023-02-20T08:01:40;100818.88;;;7.66;100.00